Check out our new BloomSky Weather System.

Active alerts


No alerts


Thunder radar  blitzortung!


Rain radar more information rain snow radar


Visit our other weather sites:

Template documentation
and downloads

And another site



Weather Underground History page Text

Daily Summary for January 18, 2017 Units:  Metric    English   Both
« Previous Day
Next Day »
Daily Weekly Monthly Yearly Custom
  High: Low: Average:
Temperature: 19.7 °C 12.8 °C 15.8 °C
Dew Point: 19.5 °C 12.5 °C 15.5 °C
Humidity: 100 % 95 % 98 %
Wind Speed: 11.3 km/h 0 km/h 2.1 km/h
Wind Gust: 14.5 km/h - -
Wind:- - WNW
Pressure: 1017.2 hPa 1013.8 hPa -
Precipitation: 43.94 mm    
Historical Graphs
 
 
Tabular Data for January 18, 2017
Time Temperature Dew Point Pressure Wind Wind Speed Wind Gust Humidity Rainfall Rate (Hourly)
00:02 15.4 °C 15.2 °C 1016.8 hPa Calm   3.2 km/h 99 % 0.25 mm
00:07 15.4 °C 15.2 °C 1016.8 hPa NE 1.6 km/h 3.2 km/h 99 % 0 mm
00:12 15.4 °C 15.2 °C 1016.8 hPa Calm   4.8 km/h 99 % 0 mm
00:17 15.4 °C 15.2 °C 1016.8 hPa East 1.6 km/h 4.8 km/h 99 % 0 mm
00:22 15.5 °C 15.3 °C 1016.8 hPa Calm   4.8 km/h 99 % 0 mm
00:27 15.6 °C 15.4 °C 1016.8 hPa Calm   4.8 km/h 99 % 0 mm
00:32 15.6 °C 15.4 °C 1016.5 hPa Calm   4.8 km/h 99 % 0 mm
00:37 15.7 °C 15.5 °C 1016.5 hPa Calm   4.8 km/h 99 % 0.25 mm
00:42 15.7 °C 15.5 °C 1016.5 hPa Calm   4.8 km/h 99 % 0.25 mm
00:47 15.7 °C 15.5 °C 1016.5 hPa Calm   4.8 km/h 99 % 0.25 mm
00:52 15.8 °C 15.6 °C 1016.5 hPa SE 1.6 km/h 4.8 km/h 99 % 0.25 mm
00:57 15.8 °C 15.6 °C 1016.5 hPa East 1.6 km/h 4.8 km/h 99 % 0.25 mm
01:02 15.9 °C 15.7 °C 1016.5 hPa Calm   4.8 km/h 99 % 0.25 mm
01:07 15.9 °C 15.7 °C 1016.5 hPa Calm   4.8 km/h 99 % 0.25 mm
01:12 15.9 °C 15.7 °C 1016.5 hPa Calm   4.8 km/h 99 % 0.25 mm
01:17 15.9 °C 15.7 °C 1016.8 hPa Calm   1.6 km/h 99 % 0.25 mm
01:22 16 °C 15.8 °C 1016.8 hPa Calm   1.6 km/h 99 % 0.25 mm
01:27 16.1 °C 15.9 °C 1016.8 hPa NW 1.6 km/h 1.6 km/h 99 % 0.51 mm
01:32 16.1 °C 15.9 °C 1016.8 hPa Calm   3.2 km/h 99 % 0.76 mm
01:37 16.1 °C 15.9 °C 1016.8 hPa Calm   3.2 km/h 99 % 1.02 mm
01:42 16.1 °C 15.9 °C 1016.8 hPa Calm   3.2 km/h 99 % 1.27 mm
01:47 16.1 °C 15.9 °C 1016.8 hPa Calm   1.6 km/h 99 % 1.78 mm
01:52 16.1 °C 15.9 °C 1016.8 hPa NW 1.6 km/h 3.2 km/h 99 % 2.29 mm
01:57 16.1 °C 15.9 °C 1016.8 hPa NW 1.6 km/h 3.2 km/h 99 % 2.54 mm
02:01 16.1 °C 15.9 °C 1016.8 hPa WNW 1.6 km/h 4.8 km/h 99 % 2.79 mm
02:06 16.1 °C 15.9 °C 1016.8 hPa NNW 4.8 km/h 4.8 km/h 99 % 3.3 mm
02:11 16.1 °C 15.9 °C 1016.8 hPa NNW 4.8 km/h 6.4 km/h 99 % 3.56 mm
02:16 15.9 °C 15.7 °C 1016.8 hPa NW 3.2 km/h 9.7 km/h 99 % 4.06 mm
02:21 15.9 °C 15.7 °C 1016.8 hPa Calm   9.7 km/h 99 % 4.32 mm
02:27 15.9 °C 15.7 °C 1017.2 hPa NW 8 km/h 9.7 km/h 99 % 4.57 mm
02:32 15.8 °C 15.6 °C 1016.8 hPa NW 4.8 km/h 9.7 km/h 99 % 4.83 mm
02:37 15.7 °C 15.5 °C 1016.8 hPa NW 3.2 km/h 9.7 km/h 99 % 4.83 mm
02:42 15.7 °C 15.5 °C 1016.8 hPa WNW 6.4 km/h 9.7 km/h 99 % 5.08 mm
02:47 15.7 °C 15.5 °C 1017.2 hPa Calm   9.7 km/h 99 % 4.83 mm
02:52 15.6 °C 15.4 °C 1016.8 hPa Calm   8 km/h 99 % 5.08 mm
02:57 15.6 °C 15.4 °C 1016.8 hPa NNW 3.2 km/h 8 km/h 99 % 5.33 mm
03:02 15.6 °C 15.4 °C 1016.8 hPa NW 1.6 km/h 6.4 km/h 99 % 5.33 mm
03:07 15.6 °C 15.4 °C 1016.8 hPa NW 4.8 km/h 8 km/h 99 % 5.08 mm
03:12 15.5 °C 15.3 °C 1016.8 hPa NNW 4.8 km/h 8 km/h 99 % 5.59 mm
03:17 15.5 °C 15.3 °C 1016.8 hPa NW 3.2 km/h 8 km/h 99 % 5.59 mm
03:22 15.5 °C 15.3 °C 1016.8 hPa NW 1.6 km/h 8 km/h 99 % 6.6 mm
03:27 15.6 °C 15.4 °C 1016.8 hPa NNW 4.8 km/h 6.4 km/h 99 % 7.11 mm
03:32 15.6 °C 15.4 °C 1016.8 hPa NNW 1.6 km/h 6.4 km/h 99 % 8.64 mm
03:37 15.7 °C 15.5 °C 1016.8 hPa North 1.6 km/h 8 km/h 99 % 9.4 mm
03:42 15.7 °C 15.5 °C 1016.5 hPa NW 1.6 km/h 8 km/h 99 % 11.43 mm
03:47 15.8 °C 15.8 °C 1016.1 hPa North 1.6 km/h 8 km/h 100 % 14.22 mm
03:52 15.8 °C 15.8 °C 1015.8 hPa NW 1.6 km/h 6.4 km/h 100 % 14.48 mm
03:57 15.9 °C 15.9 °C 1015.8 hPa Calm   6.4 km/h 100 % 14.22 mm
04:02 16 °C 16 °C 1016.1 hPa Calm   6.4 km/h 100 % 14.22 mm
04:07 16.2 °C 16.2 °C 1016.1 hPa Calm   6.4 km/h 100 % 13.97 mm
04:12 16.2 °C 16.2 °C 1016.1 hPa Calm   4.8 km/h 100 % 13.72 mm
04:17 16.3 °C 16.3 °C 1016.1 hPa NW 1.6 km/h 4.8 km/h 100 % 13.72 mm
04:22 16.3 °C 16.3 °C 1015.8 hPa NW 1.6 km/h 3.2 km/h 100 % 12.45 mm
04:27 16.3 °C 16.3 °C 1015.8 hPa Calm   3.2 km/h 100 % 11.43 mm
04:32 16.3 °C 16.3 °C 1015.8 hPa Calm   3.2 km/h 100 % 9.14 mm
04:37 16.3 °C 16.3 °C 1015.8 hPa NNW 1.6 km/h 3.2 km/h 100 % 8.13 mm
04:42 16.3 °C 16.3 °C 1015.8 hPa Calm   3.2 km/h 100 % 5.59 mm
04:47 16.3 °C 16.3 °C 1016.1 hPa Calm   3.2 km/h 100 % 2.79 mm
04:52 16.3 °C 16.3 °C 1016.1 hPa NW 1.6 km/h 3.2 km/h 100 % 2.54 mm
04:57 16.4 °C 16.4 °C 1016.1 hPa ENE 3.2 km/h 3.2 km/h 100 % 2.29 mm
05:02 16.4 °C 16.4 °C 1016.1 hPa Calm   4.8 km/h 100 % 2.29 mm
05:07 16.3 °C 16.3 °C 1016.1 hPa NW 4.8 km/h 4.8 km/h 100 % 2.54 mm
05:12 16.3 °C 16.3 °C 1016.1 hPa NW 3.2 km/h 6.4 km/h 100 % 3.3 mm
05:17 16.3 °C 16.3 °C 1016.1 hPa NW 3.2 km/h 6.4 km/h 100 % 3.05 mm
05:22 16.3 °C 16.3 °C 1015.8 hPa North 1.6 km/h 6.4 km/h 100 % 3.3 mm
05:27 16.3 °C 16.3 °C 1015.8 hPa Calm   6.4 km/h 100 % 3.3 mm
05:32 16.3 °C 16.3 °C 1016.1 hPa NE 1.6 km/h 6.4 km/h 100 % 3.3 mm
05:37 16.3 °C 16.3 °C 1016.1 hPa NNE 3.2 km/h 6.4 km/h 100 % 3.81 mm
05:42 16.3 °C 16.3 °C 1016.1 hPa Calm   4.8 km/h 100 % 3.56 mm
05:47 16.3 °C 16.3 °C 1016.5 hPa Calm   4.8 km/h 100 % 3.3 mm
05:52 16.3 °C 16.3 °C 1016.5 hPa NW 1.6 km/h 4.8 km/h 100 % 3.3 mm
05:57 16.4 °C 16.4 °C 1016.5 hPa NNW 4.8 km/h 4.8 km/h 100 % 5.08 mm
06:02 16.4 °C 16.4 °C 1016.1 hPa NNW 1.6 km/h 4.8 km/h 100 % 6.86 mm
06:07 16.3 °C 16.3 °C 1016.8 hPa NW 1.6 km/h 4.8 km/h 100 % 6.86 mm
06:12 16.3 °C 16.3 °C 1016.5 hPa NW 1.6 km/h 4.8 km/h 100 % 7.37 mm
06:17 16.3 °C 16.3 °C 1016.5 hPa NNW 1.6 km/h 4.8 km/h 100 % 8.13 mm
06:22 16.3 °C 16.3 °C 1016.8 hPa North 3.2 km/h 4.8 km/h 100 % 8.38 mm
06:27 16.3 °C 16.3 °C 1016.5 hPa NW 3.2 km/h 3.2 km/h 100 % 8.38 mm
06:32 16.3 °C 16.3 °C 1016.1 hPa North 3.2 km/h 6.4 km/h 100 % 8.38 mm
06:37 16.3 °C 16.3 °C 1016.1 hPa NW 3.2 km/h 8 km/h 100 % 7.62 mm
06:42 16.3 °C 16.3 °C 1016.1 hPa NNW 1.6 km/h 8 km/h 100 % 7.62 mm
06:47 16.2 °C 16.2 °C 1016.5 hPa North 1.6 km/h 9.7 km/h 100 % 7.62 mm
06:52 16.3 °C 16.3 °C 1016.5 hPa NW 4.8 km/h 9.7 km/h 100 % 7.37 mm
06:57 16.2 °C 16.2 °C 1016.5 hPa NNW 4.8 km/h 9.7 km/h 100 % 5.59 mm
07:02 16.2 °C 16.2 °C 1016.1 hPa NW 8 km/h 8 km/h 100 % 3.3 mm
07:07 16.2 °C 16.2 °C 1016.5 hPa NNW 3.2 km/h 8 km/h 100 % 3.05 mm
07:12 16.1 °C 16.1 °C 1016.5 hPa WNW 1.6 km/h 8 km/h 100 % 1.52 mm
07:17 16.1 °C 16.1 °C 1016.5 hPa North 1.6 km/h 9.7 km/h 100 % 0.25 mm
07:22 16.1 °C 16.1 °C 1016.1 hPa NNW 3.2 km/h 9.7 km/h 100 % 0 mm
07:27 16 °C 16 °C 1016.5 hPa NW 1.6 km/h 9.7 km/h 100 % 0 mm
07:32 16.1 °C 16.1 °C 1016.5 hPa Calm   6.4 km/h 100 % 0.25 mm
07:37 16.1 °C 16.1 °C 1016.5 hPa NW 3.2 km/h 6.4 km/h 100 % 0.25 mm
07:42 16.1 °C 16.1 °C 1016.5 hPa Calm   4.8 km/h 100 % 0.25 mm
07:47 16.1 °C 16.1 °C 1016.5 hPa NW 1.6 km/h 4.8 km/h 100 % 0.25 mm
07:52 16.1 °C 16.1 °C 1016.5 hPa NW 1.6 km/h 4.8 km/h 100 % 0.25 mm
07:57 16.1 °C 16.1 °C 1016.5 hPa NW 6.4 km/h 6.4 km/h 100 % 0.25 mm
08:02 16.1 °C 16.1 °C 1016.5 hPa Calm   6.4 km/h 100 % 0.76 mm
08:07 16.1 °C 16.1 °C 1016.5 hPa Calm   6.4 km/h 100 % 1.02 mm
08:12 16.1 °C 16.1 °C 1016.8 hPa North 1.6 km/h 6.4 km/h 100 % 1.27 mm
08:17 16 °C 16 °C 1016.8 hPa Calm   6.4 km/h 100 % 2.79 mm
08:18 16 °C 16 °C 1016.8 hPa Calm   6.4 km/h 100 % 2.79 mm
08:23 16 °C 16 °C 1016.8 hPa NNW 4.8 km/h 4.8 km/h 100 % 3.56 mm
08:28 16.1 °C 16.1 °C 1016.5 hPa NNE 1.6 km/h 4.8 km/h 100 % 3.56 mm
08:33 16.1 °C 16.1 °C 1016.8 hPa Calm   4.8 km/h 100 % 3.81 mm
08:38 16.1 °C 16.1 °C 1016.8 hPa WNW 1.6 km/h 4.8 km/h 100 % 3.81 mm
08:43 16.1 °C 16.1 °C 1016.8 hPa Calm   4.8 km/h 100 % 4.06 mm
08:48 16.1 °C 16.1 °C 1016.8 hPa NE 1.6 km/h 4.8 km/h 100 % 6.35 mm
08:53 16.2 °C 16.2 °C 1016.8 hPa Calm   4.8 km/h 100 % 7.62 mm
08:58 16.1 °C 16.1 °C 1016.8 hPa WNW 1.6 km/h 4.8 km/h 100 % 7.87 mm
09:03 16.1 °C 16.1 °C 1016.8 hPa WNW 1.6 km/h 4.8 km/h 100 % 7.37 mm
09:08 16.2 °C 16.2 °C 1016.8 hPa NW 3.2 km/h 3.2 km/h 100 % 7.37 mm
09:13 16.3 °C 16.3 °C 1016.8 hPa NNW 3.2 km/h 3.2 km/h 100 % 7.11 mm
09:18 16.4 °C 16.4 °C 1016.5 hPa NNE 4.8 km/h 4.8 km/h 100 % 5.59 mm
09:23 16.5 °C 16.5 °C 1016.8 hPa NNW 1.6 km/h 4.8 km/h 100 % 4.83 mm
09:28 16.6 °C 16.6 °C 1016.8 hPa Calm   4.8 km/h 100 % 4.83 mm
09:34 16.8 °C 16.8 °C 1016.5 hPa North 3.2 km/h 4.8 km/h 100 % 4.32 mm
09:39 17.1 °C 17.1 °C 1016.5 hPa Calm   3.2 km/h 100 % 4.32 mm
09:44 17.3 °C 17.3 °C 1016.8 hPa NNW 1.6 km/h 3.2 km/h 100 % 4.06 mm
09:49 17.5 °C 17.5 °C 1016.8 hPa Calm   3.2 km/h 100 % 1.78 mm
09:54 17.7 °C 17.7 °C 1016.8 hPa NW 1.6 km/h 4.8 km/h 100 % 0.51 mm
10:00 17.8 °C 17.8 °C 1016.8 hPa Calm   4.8 km/h 100 % 0.25 mm
10:05 18 °C 18 °C 1016.8 hPa NW 1.6 km/h 3.2 km/h 100 % 0 mm
10:10 18.2 °C 18.2 °C 1016.8 hPa NNW 1.6 km/h 3.2 km/h 100 % 0 mm
10:15 18.5 °C 18.5 °C 1016.8 hPa Calm   3.2 km/h 100 % 0 mm
10:20 18.7 °C 18.7 °C 1016.8 hPa NNW 1.6 km/h 3.2 km/h 100 % 0 mm
10:25 19 °C 19 °C 1016.8 hPa NE 1.6 km/h 3.2 km/h 100 % 0 mm
10:30 19.2 °C 19.2 °C 1016.8 hPa Calm   3.2 km/h 100 % 0 mm
10:35 19.1 °C 19.1 °C 1016.8 hPa NW 1.6 km/h 3.2 km/h 100 % 0 mm
10:40 19.1 °C 18.9 °C 1016.8 hPa NW 3.2 km/h 4.8 km/h 99 % 0 mm
10:45 19 °C 18.8 °C 1016.8 hPa NW 1.6 km/h 4.8 km/h 99 % 0 mm
10:50 19 °C 18.8 °C 1016.8 hPa North 1.6 km/h 4.8 km/h 99 % 0 mm
10:55 18.9 °C 18.7 °C 1016.8 hPa WNW 1.6 km/h 3.2 km/h 99 % 0 mm
11:00 18.9 °C 18.7 °C 1016.8 hPa Calm   3.2 km/h 99 % 0 mm
11:05 18.9 °C 18.7 °C 1016.8 hPa NW 3.2 km/h 4.8 km/h 99 % 0 mm
11:10 18.9 °C 18.7 °C 1016.8 hPa Calm   4.8 km/h 99 % 0 mm
11:15 19 °C 18.8 °C 1016.5 hPa NNW 1.6 km/h 4.8 km/h 99 % 0 mm
11:20 19.2 °C 19 °C 1016.5 hPa Calm   3.2 km/h 99 % 0 mm
11:25 19.4 °C 19.2 °C 1016.5 hPa Calm   3.2 km/h 99 % 0 mm
11:30 19.5 °C 19.3 °C 1016.5 hPa Calm   1.6 km/h 99 % 0 mm
11:36 19.6 °C 19.4 °C 1016.5 hPa Calm   1.6 km/h 99 % 0 mm
11:41 19.7 °C 19.5 °C 1016.5 hPa Calm   1.6 km/h 99 % 0 mm
11:46 19.6 °C 19.4 °C 1016.1 hPa Calm   3.2 km/h 99 % 0 mm
11:51 19.7 °C 19.5 °C 1015.8 hPa Calm   3.2 km/h 99 % 0 mm
11:56 19.7 °C 19.4 °C 1015.8 hPa NW 1.6 km/h 3.2 km/h 98 % 0 mm
12:01 19.7 °C 19.4 °C 1015.8 hPa SW 1.6 km/h 3.2 km/h 98 % 0 mm
12:06 19.5 °C 19.2 °C 1015.8 hPa NNW 3.2 km/h 4.8 km/h 98 % 0 mm
12:11 19.4 °C 19.1 °C 1015.5 hPa Calm   6.4 km/h 98 % 0 mm
12:16 19.4 °C 19.1 °C 1015.5 hPa WSW 1.6 km/h 6.4 km/h 98 % 0 mm
12:21 19.1 °C 18.6 °C 1015.5 hPa WSW 8 km/h 9.7 km/h 97 % 0 mm
12:26 18.7 °C 18 °C 1015.5 hPa West 8 km/h 11.3 km/h 96 % 0 mm
12:31 18.3 °C 17.8 °C 1015.5 hPa WSW 1.6 km/h 11.3 km/h 97 % 0 mm
12:36 18.1 °C 17.5 °C 1015.5 hPa WSW 3.2 km/h 11.3 km/h 96 % 0 mm
12:41 17.7 °C 17.2 °C 1015.1 hPa NNW 6.4 km/h 11.3 km/h 97 % 0 mm
12:46 17.4 °C 16.9 °C 1015.1 hPa WSW 3.2 km/h 11.3 km/h 97 % 0 mm
12:51 17.3 °C 16.8 °C 1015.1 hPa NW 4.8 km/h 11.3 km/h 97 % 0 mm
12:56 17.1 °C 16.6 °C 1015.1 hPa NNW 6.4 km/h 11.3 km/h 97 % 0 mm
13:01 16.9 °C 16.4 °C 1014.8 hPa NW 6.4 km/h 11.3 km/h 97 % 0 mm
13:06 16.7 °C 16.2 °C 1015.1 hPa NW 3.2 km/h 11.3 km/h 97 % 0 mm
13:11 16.6 °C 16.1 °C 1015.1 hPa NW 1.6 km/h 11.3 km/h 97 % 0 mm
13:16 16.4 °C 15.9 °C 1015.1 hPa NW 4.8 km/h 11.3 km/h 97 % 0 mm
13:21 16.3 °C 15.8 °C 1014.8 hPa NNW 9.7 km/h 11.3 km/h 97 % 0 mm
13:26 16.2 °C 15.7 °C 1014.8 hPa Calm   11.3 km/h 97 % 0 mm
13:31 16.1 °C 15.6 °C 1014.4 hPa North 4.8 km/h 11.3 km/h 97 % 0 mm
13:36 16.1 °C 15.6 °C 1014.8 hPa WSW 1.6 km/h 9.7 km/h 97 % 0.25 mm
13:41 16 °C 15.5 °C 1014.8 hPa Calm   9.7 km/h 97 % 0.25 mm
13:46 15.9 °C 15.4 °C 1014.4 hPa WNW 4.8 km/h 9.7 km/h 97 % 0.25 mm
13:51 15.8 °C 15.3 °C 1014.1 hPa WNW 1.6 km/h 9.7 km/h 97 % 0.25 mm
13:56 15.8 °C 15.5 °C 1013.8 hPa NW 1.6 km/h 6.4 km/h 98 % 0.25 mm
14:01 15.9 °C 15.6 °C 1013.8 hPa WSW 3.2 km/h 6.4 km/h 98 % 0.25 mm
14:06 15.9 °C 15.6 °C 1014.1 hPa ENE 1.6 km/h 8 km/h 98 % 0.25 mm
14:11 15.9 °C 15.6 °C 1014.1 hPa WNW 4.8 km/h 8 km/h 98 % 0.25 mm
14:16 15.7 °C 15.2 °C 1014.4 hPa NNE 6.4 km/h 14.5 km/h 97 % 0.25 mm
14:21 15.6 °C 15.1 °C 1014.4 hPa NW 4.8 km/h 14.5 km/h 97 % 0.25 mm
14:26 15.3 °C 14.8 °C 1014.4 hPa North 11.3 km/h 14.5 km/h 97 % 0.25 mm
14:31 15.1 °C 14.6 °C 1014.4 hPa NW 3.2 km/h 14.5 km/h 97 % 0 mm
14:36 14.8 °C 14.3 °C 1014.4 hPa WNW 8 km/h 14.5 km/h 97 % 0 mm
14:41 14.8 °C 14.5 °C 1014.4 hPa NW 6.4 km/h 14.5 km/h 98 % 0 mm
14:46 14.8 °C 14.5 °C 1014.4 hPa Calm   12.9 km/h 98 % 0 mm
14:47 14.8 °C 14.5 °C 1014.4 hPa NW 1.6 km/h 12.9 km/h 98 % 0 mm
14:52 14.8 °C 14.5 °C 1014.4 hPa North 3.2 km/h 12.9 km/h 98 % 0 mm
14:57 14.9 °C 14.6 °C 1014.4 hPa NW 3.2 km/h 9.7 km/h 98 % 0 mm
15:02 14.9 °C 14.6 °C 1014.4 hPa NNW 3.2 km/h 9.7 km/h 98 % 0 mm
15:07 15 °C 14.7 °C 1014.4 hPa NW 1.6 km/h 8 km/h 98 % 0 mm
15:12 14.9 °C 14.4 °C 1014.4 hPa NW 1.6 km/h 6.4 km/h 97 % 0 mm
15:17 15 °C 14.5 °C 1014.4 hPa NW 3.2 km/h 4.8 km/h 97 % 0 mm
15:22 15.1 °C 14.6 °C 1014.4 hPa WNW 1.6 km/h 4.8 km/h 97 % 0 mm
15:27 15.1 °C 14.6 °C 1014.1 hPa Calm   4.8 km/h 97 % 0 mm
15:32 15.2 °C 14.7 °C 1014.1 hPa NNW 3.2 km/h 4.8 km/h 97 % 0 mm
15:37 15.3 °C 14.8 °C 1013.8 hPa NNW 1.6 km/h 6.4 km/h 97 % 0 mm
15:42 15.3 °C 14.8 °C 1014.1 hPa NNW 4.8 km/h 6.4 km/h 97 % 0 mm
15:47 15.4 °C 14.9 °C 1014.1 hPa NW 1.6 km/h 6.4 km/h 97 % 0 mm
15:52 15.6 °C 15 °C 1014.1 hPa NW 3.2 km/h 6.4 km/h 96 % 0 mm
15:57 15.6 °C 15 °C 1014.1 hPa NW 4.8 km/h 4.8 km/h 96 % 0 mm
16:02 15.7 °C 15.1 °C 1014.1 hPa WNW 1.6 km/h 6.4 km/h 96 % 0 mm
16:07 15.7 °C 15.1 °C 1013.8 hPa Calm   6.4 km/h 96 % 0 mm
16:12 15.9 °C 15.3 °C 1013.8 hPa Calm   6.4 km/h 96 % 0 mm
16:17 15.9 °C 15.3 °C 1013.8 hPa NW 1.6 km/h 4.8 km/h 96 % 0 mm
16:22 16.1 °C 15.5 °C 1013.8 hPa NNW 1.6 km/h 4.8 km/h 96 % 0 mm
16:27 16.1 °C 15.5 °C 1013.8 hPa Calm   4.8 km/h 96 % 0 mm
16:32 16.2 °C 15.4 °C 1014.1 hPa North 1.6 km/h 4.8 km/h 95 % 0 mm
16:37 16.1 °C 15.3 °C 1014.4 hPa Calm   3.2 km/h 95 % 0 mm
16:42 16.2 °C 15.4 °C 1014.1 hPa Calm   3.2 km/h 95 % 0 mm
16:47 16.1 °C 15.3 °C 1014.4 hPa NW 1.6 km/h 1.6 km/h 95 % 0 mm
16:52 16.1 °C 15.3 °C 1014.4 hPa Calm   3.2 km/h 95 % 0 mm
16:57 16.1 °C 15.3 °C 1014.4 hPa Calm   3.2 km/h 95 % 0 mm
17:02 16.1 °C 15.3 °C 1014.4 hPa WNW 1.6 km/h 3.2 km/h 95 % 0 mm
17:07 16.1 °C 15.3 °C 1014.4 hPa NW 3.2 km/h 3.2 km/h 95 % 0 mm
17:12 16.1 °C 15.3 °C 1014.4 hPa NNW 1.6 km/h 4.8 km/h 95 % 0 mm
17:17 16 °C 15.2 °C 1014.4 hPa NW 1.6 km/h 4.8 km/h 95 % 0 mm
17:21 16 °C 15.2 °C 1014.4 hPa NW 1.6 km/h 4.8 km/h 95 % 0 mm
17:27 16 °C 15.2 °C 1014.4 hPa Calm   4.8 km/h 95 % 0 mm
17:32 16 °C 15.2 °C 1014.4 hPa NW 1.6 km/h 3.2 km/h 95 % 0 mm
17:37 15.9 °C 15.1 °C 1014.4 hPa WNW 4.8 km/h 4.8 km/h 95 % 0 mm
17:42 15.9 °C 15.1 °C 1014.4 hPa West 3.2 km/h 4.8 km/h 95 % 0 mm
17:47 15.8 °C 15 °C 1014.8 hPa West 3.2 km/h 4.8 km/h 95 % 0 mm
17:52 15.8 °C 15 °C 1014.8 hPa WSW 1.6 km/h 4.8 km/h 95 % 0 mm
17:57 15.7 °C 15.1 °C 1014.8 hPa Calm   6.4 km/h 96 % 0 mm
18:02 15.7 °C 15.1 °C 1014.8 hPa Calm   6.4 km/h 96 % 0 mm
18:07 15.6 °C 15 °C 1014.8 hPa NW 1.6 km/h 6.4 km/h 96 % 0 mm
18:12 15.5 °C 14.9 °C 1014.8 hPa WNW 3.2 km/h 4.8 km/h 96 % 0 mm
18:17 15.4 °C 14.8 °C 1014.8 hPa NW 1.6 km/h 4.8 km/h 96 % 0 mm
18:22 15.4 °C 14.8 °C 1014.8 hPa SW 1.6 km/h 4.8 km/h 96 % 0 mm
18:27 15.3 °C 14.7 °C 1014.8 hPa Calm   4.8 km/h 96 % 0 mm
18:32 15.3 °C 14.7 °C 1015.1 hPa WSW 1.6 km/h 4.8 km/h 96 % 0 mm
18:37 15.2 °C 14.6 °C 1015.1 hPa Calm   4.8 km/h 96 % 0 mm
18:42 15.2 °C 14.6 °C 1015.1 hPa NW 3.2 km/h 4.8 km/h 96 % 0 mm
18:47 15.1 °C 14.5 °C 1015.1 hPa Calm   8 km/h 96 % 0 mm
18:52 15.1 °C 14.5 °C 1015.1 hPa NNW 3.2 km/h 8 km/h 96 % 0 mm
18:57 15 °C 14.5 °C 1015.5 hPa WNW 3.2 km/h 8 km/h 97 % 0 mm
19:02 14.9 °C 14.4 °C 1015.1 hPa Calm   8 km/h 97 % 0 mm
19:07 14.9 °C 14.4 °C 1015.1 hPa Calm   8 km/h 97 % 0 mm
19:12 14.9 °C 14.4 °C 1015.1 hPa Calm   6.4 km/h 97 % 0 mm
19:17 14.8 °C 14.3 °C 1015.1 hPa West 1.6 km/h 4.8 km/h 97 % 0 mm
19:22 14.8 °C 14.3 °C 1015.1 hPa NW 1.6 km/h 4.8 km/h 97 % 0 mm
19:27 14.7 °C 14.2 °C 1015.5 hPa Calm   9.7 km/h 97 % 0 mm
19:32 14.6 °C 14.1 °C 1015.1 hPa West 1.6 km/h 9.7 km/h 97 % 0 mm
19:37 14.5 °C 14 °C 1015.1 hPa Calm   9.7 km/h 97 % 0 mm
19:42 14.4 °C 13.9 °C 1015.1 hPa NW 6.4 km/h 8 km/h 97 % 0 mm
19:47 14.3 °C 13.8 °C 1015.1 hPa NNW 6.4 km/h 11.3 km/h 97 % 0 mm
19:52 14.1 °C 13.8 °C 1015.1 hPa NNW 4.8 km/h 11.3 km/h 98 % 0 mm
19:57 14 °C 13.7 °C 1015.1 hPa Calm   11.3 km/h 98 % 0 mm
20:02 13.9 °C 13.6 °C 1015.1 hPa NW 3.2 km/h 9.7 km/h 98 % 0 mm
20:07 13.8 °C 13.5 °C 1015.5 hPa NW 9.7 km/h 9.7 km/h 98 % 0 mm
20:12 13.7 °C 13.4 °C 1015.5 hPa Calm   9.7 km/h 98 % 0 mm
20:18 13.7 °C 13.4 °C 1015.1 hPa NW 4.8 km/h 9.7 km/h 98 % 0 mm
20:24 13.7 °C 13.4 °C 1015.1 hPa NNW 3.2 km/h 9.7 km/h 98 % 0 mm
20:29 13.6 °C 13.3 °C 1015.1 hPa SSW 1.6 km/h 8 km/h 98 % 0 mm
20:34 13.6 °C 13.3 °C 1015.1 hPa NW 3.2 km/h 8 km/h 98 % 0 mm
20:39 13.6 °C 13.3 °C 1015.5 hPa WNW 1.6 km/h 8 km/h 98 % 0 mm
20:44 13.6 °C 13.3 °C 1015.1 hPa NW 3.2 km/h 8 km/h 98 % 0 mm
20:49 13.5 °C 13.2 °C 1015.1 hPa West 4.8 km/h 8 km/h 98 % 0 mm
20:54 13.4 °C 13.1 °C 1014.8 hPa Calm   6.4 km/h 98 % 0 mm
20:59 13.4 °C 13.1 °C 1014.8 hPa NW 3.2 km/h 11.3 km/h 98 % 0 mm
21:04 13.4 °C 13.1 °C 1015.1 hPa NNW 4.8 km/h 11.3 km/h 98 % 0 mm
21:09 13.4 °C 13.1 °C 1015.1 hPa North 3.2 km/h 11.3 km/h 98 % 0 mm
21:14 13.3 °C 13 °C 1015.1 hPa WSW 1.6 km/h 8 km/h 98 % 0 mm
21:19 13.3 °C 13 °C 1015.1 hPa Calm   8 km/h 98 % 0 mm
21:24 13.2 °C 12.9 °C 1015.1 hPa Calm   8 km/h 98 % 0 mm
21:29 13.2 °C 12.9 °C 1015.1 hPa Calm   8 km/h 98 % 0 mm
21:34 13.2 °C 12.9 °C 1014.8 hPa West 6.4 km/h 8 km/h 98 % 0 mm
21:39 13.1 °C 12.8 °C 1014.8 hPa NW 1.6 km/h 9.7 km/h 98 % 0 mm
21:44 13.1 °C 12.8 °C 1014.8 hPa NNW 1.6 km/h 9.7 km/h 98 % 0 mm
21:49 13.2 °C 12.9 °C 1014.8 hPa WNW 3.2 km/h 9.7 km/h 98 % 0 mm
21:54 13.1 °C 12.8 °C 1015.1 hPa Calm   9.7 km/h 98 % 0 mm
21:59 13.1 °C 12.8 °C 1014.8 hPa Calm   8 km/h 98 % 0 mm
22:04 13.1 °C 12.8 °C 1014.4 hPa NW 1.6 km/h 8 km/h 98 % 0 mm
22:09 13 °C 12.7 °C 1014.4 hPa NW 3.2 km/h 6.4 km/h 98 % 0 mm
22:14 13.1 °C 12.8 °C 1014.8 hPa WNW 1.6 km/h 6.4 km/h 98 % 0 mm
22:19 13 °C 12.7 °C 1014.8 hPa North 1.6 km/h 6.4 km/h 98 % 0 mm
22:24 13 °C 12.7 °C 1015.1 hPa NNW 3.2 km/h 6.4 km/h 98 % 0 mm
22:29 13 °C 12.7 °C 1015.1 hPa Calm   6.4 km/h 98 % 0 mm
22:34 12.9 °C 12.6 °C 1014.8 hPa NW 1.6 km/h 6.4 km/h 98 % 0 mm
22:39 12.9 °C 12.6 °C 1014.8 hPa Calm   4.8 km/h 98 % 0 mm
22:40 12.9 °C 12.6 °C 1014.8 hPa Calm   4.8 km/h 98 % 0 mm
22:45 12.9 °C 12.6 °C 1014.8 hPa NNW 3.2 km/h 4.8 km/h 98 % 0 mm
22:50 12.9 °C 12.6 °C 1014.8 hPa NW 1.6 km/h 4.8 km/h 98 % 0 mm
22:55 12.9 °C 12.6 °C 1014.8 hPa Calm   3.2 km/h 98 % 0 mm
23:00 12.9 °C 12.6 °C 1014.8 hPa NW 1.6 km/h 3.2 km/h 98 % 0 mm
23:05 12.9 °C 12.6 °C 1014.8 hPa NW 4.8 km/h 4.8 km/h 98 % 0 mm
23:10 12.9 °C 12.6 °C 1014.8 hPa NW 3.2 km/h 6.4 km/h 98 % 0 mm
23:15 12.9 °C 12.6 °C 1014.8 hPa WNW 1.6 km/h 8 km/h 98 % 0 mm
23:20 12.8 °C 12.5 °C 1014.8 hPa WNW 1.6 km/h 8 km/h 98 % 0 mm
23:25 12.8 °C 12.5 °C 1014.8 hPa NW 1.6 km/h 8 km/h 98 % 0 mm
23:30 12.8 °C 12.5 °C 1014.8 hPa Calm   6.4 km/h 98 % 0 mm
23:35 12.8 °C 12.5 °C 1014.8 hPa WNW 1.6 km/h 6.4 km/h 98 % 0 mm
23:40 12.8 °C 12.5 °C 1014.4 hPa Calm   4.8 km/h 98 % 0 mm
23:45 12.8 °C 12.5 °C 1014.4 hPa Calm   6.4 km/h 98 % 0 mm
23:50 12.8 °C 12.5 °C 1014.4 hPa West 1.6 km/h 6.4 km/h 98 % 0 mm
23:55 12.8 °C 12.5 °C 1014.1 hPa Calm   6.4 km/h 98 % 0 mm
Spring, Texas: Villages of Bridgestone
Compliments of Weather Underground - 3 mb

Script developed by  Jim McMurry - jmcmurry@mwt.net Adapted for the template by  Wim van der Kuil - Leuven-Template.eu

You find our weather info also at:

UK Metoffice

WeatherCloud

Weather Underground

Mid-South Weather Network

AWEKAS

Citizen Weather Observer Program (CWOP)

HAMweather, WeatherForYou, PWS Weather

Equipment we use:

Weather-station
Davis Vantage Vue

Weather-program
Meteohub

Weather-server
Debian 7.9 x86 (Guest)

Provider
DreamHost

Davis Vantage Vue

Meteohub

Debian 7.9 x86 (Guest)

DreamHost